LVCTT SAEZ-SABE
Flight info
| Callsign | LVCTT |
|---|---|
| Flight time | 0h 21m |
| Altitude | 5000 |
| Route | TRINI/N0307F130 DCT VANAR |
| Aircraft | C510/L-SDFGRWY/LB1 |
Departure
| Time | 2026-05-06 20:25 |
|---|---|
| Airport | Ezeiza International Airport - Ministro Pistarini (SAEZ) |
Arrival
| Time | 2026-05-06 20:47 |
|---|---|
| Airport | Aeroparque Jorge Newbery (SABE) |
| Time | Latitude | Longitude | Altitude | Speed | Heading |
|---|---|---|---|---|---|
| 2026-05-06 20:04 | -34.79962 | -58.52501 | 71 ft | 0 kts | 43° |
| 2026-05-06 20:04 | -34.79936 | -58.52501 | 70 ft | 0 kts | 239° |
| 2026-05-06 20:04 | -34.79956 | -58.52518 | 71 ft | 0 kts | 221° |
| 2026-05-06 20:20 | -34.79957 | -58.52534 | 65 ft | 7 kts | 291° |
| 2026-05-06 20:21 | -34.79905 | -58.52609 | 71 ft | 16 kts | 307° |
| 2026-05-06 20:21 | -34.79813 | -58.52744 | 68 ft | 26 kts | 313° |
| 2026-05-06 20:21 | -34.79752 | -58.52926 | 66 ft | 20 kts | 218° |
| 2026-05-06 20:21 | -34.79856 | -58.53053 | 67 ft | 23 kts | 226° |
| 2026-05-06 20:22 | -34.79983 | -58.53213 | 67 ft | 29 kts | 226° |
| 2026-05-06 20:22 | -34.80144 | -58.53405 | 66 ft | 35 kts | 223° |
| 2026-05-06 20:22 | -34.80327 | -58.53635 | 67 ft | 40 kts | 226° |
| 2026-05-06 20:22 | -34.80595 | -58.53727 | 71 ft | 44 kts | 167° |
| 2026-05-06 20:23 | -34.80830 | -58.53612 | 72 ft | 17 kts | 157° |
| 2026-05-06 20:23 | -34.80868 | -58.53586 | 72 ft | 16 kts | 143° |
| 2026-05-06 20:23 | -34.80887 | -58.53518 | 73 ft | 7 kts | 61° |
| 2026-05-06 20:23 | -34.80878 | -58.53489 | 74 ft | 0 kts | 77° |
| 2026-05-06 20:24 | -34.80875 | -58.53475 | 75 ft | 8 kts | 73° |
| 2026-05-06 20:24 | -34.80858 | -58.53402 | 78 ft | 9 kts | 92° |
| 2026-05-06 20:24 | -34.80920 | -58.53365 | 74 ft | 23 kts | 161° |
| 2026-05-06 20:25 | -34.81277 | -58.53242 | 81 ft | 85 kts | 162° |
| 2026-05-06 20:25 | -34.81991 | -58.52996 | 208 ft | 122 kts | 163° |
| 2026-05-06 20:25 | -34.82275 | -58.52917 | 336 ft | 126 kts | 165° |
| 2026-05-06 20:25 | -34.83740 | -58.52605 | 993 ft | 143 kts | 165° |
| 2026-05-06 20:26 | -34.84700 | -58.52175 | 1422 ft | 152 kts | 139° |
| 2026-05-06 20:26 | -34.85252 | -58.51040 | 1781 ft | 163 kts | 96° |
| 2026-05-06 20:26 | -34.84931 | -58.49726 | 2171 ft | 174 kts | 48° |
| 2026-05-06 20:26 | -34.83819 | -58.49265 | 2501 ft | 182 kts | 351° |
| 2026-05-06 20:27 | -34.82660 | -58.49875 | 2633 ft | 186 kts | 338° |
| 2026-05-06 20:27 | -34.81439 | -58.50547 | 2508 ft | 201 kts | 339° |
| 2026-05-06 20:27 | -34.80149 | -58.51266 | 2441 ft | 216 kts | 336° |
| 2026-05-06 20:27 | -34.78714 | -58.52144 | 2254 ft | 245 kts | 336° |
| 2026-05-06 20:28 | -34.77118 | -58.53096 | 2047 ft | 263 kts | 336° |
| 2026-05-06 20:28 | -34.75536 | -58.54201 | 1850 ft | 263 kts | 326° |
| 2026-05-06 20:28 | -34.74180 | -58.55715 | 1658 ft | 266 kts | 316° |
| 2026-05-06 20:28 | -34.72916 | -58.57360 | 1507 ft | 266 kts | 315° |
| 2026-05-06 20:29 | -34.71658 | -58.58978 | 1510 ft | 260 kts | 315° |
| 2026-05-06 20:29 | -34.70406 | -58.60550 | 1506 ft | 257 kts | 315° |
| 2026-05-06 20:29 | -34.69165 | -58.62104 | 1509 ft | 255 kts | 315° |
| 2026-05-06 20:29 | -34.67940 | -58.63635 | 1799 ft | 251 kts | 315° |
| 2026-05-06 20:30 | -34.66755 | -58.65127 | 2475 ft | 238 kts | 316° |
| 2026-05-06 20:30 | -34.64669 | -58.67979 | 3962 ft | 212 kts | 315° |
| 2026-05-06 20:30 | -34.63730 | -58.69294 | 4706 ft | 200 kts | 315° |
| 2026-05-06 20:31 | -34.62846 | -58.70506 | 5438 ft | 189 kts | 315° |
| 2026-05-06 20:31 | -34.61992 | -58.71658 | 6177 ft | 178 kts | 315° |
| 2026-05-06 20:31 | -34.61161 | -58.72764 | 6683 ft | 183 kts | 315° |
| 2026-05-06 20:31 | -34.60237 | -58.73969 | 6688 ft | 206 kts | 315° |
| 2026-05-06 20:32 | -34.59258 | -58.75231 | 6696 ft | 220 kts | 315° |
| 2026-05-06 20:32 | -34.58183 | -58.76612 | 6699 ft | 230 kts | 315° |
| 2026-05-06 20:32 | -34.57064 | -58.78048 | 6700 ft | 237 kts | 315° |
| 2026-05-06 20:32 | -34.55915 | -58.79493 | 6701 ft | 237 kts | 319° |
| 2026-05-06 20:33 | -34.54444 | -58.80362 | 6698 ft | 242 kts | 347° |
| 2026-05-06 20:33 | -34.52749 | -58.80337 | 6698 ft | 247 kts | 2° |
| 2026-05-06 20:33 | -34.51041 | -58.80067 | 6702 ft | 249 kts | 4° |
| 2026-05-06 20:33 | -34.49319 | -58.79721 | 6703 ft | 252 kts | 6° |
| 2026-05-06 20:34 | -34.47595 | -58.79351 | 6704 ft | 251 kts | 6° |
| 2026-05-06 20:34 | -34.45880 | -58.78900 | 6706 ft | 253 kts | 9° |
| 2026-05-06 20:34 | -34.44168 | -58.78368 | 6713 ft | 255 kts | 10° |
| 2026-05-06 20:34 | -34.42446 | -58.77822 | 6717 ft | 256 kts | 10° |
| 2026-05-06 20:35 | -34.40744 | -58.77280 | 6720 ft | 256 kts | 10° |
| 2026-05-06 20:35 | -34.39019 | -58.76728 | 6721 ft | 257 kts | 10° |
| 2026-05-06 20:35 | -34.37281 | -58.76179 | 6721 ft | 257 kts | 10° |
| 2026-05-06 20:35 | -34.35539 | -58.75727 | 6716 ft | 254 kts | 5° |
| 2026-05-06 20:36 | -34.33786 | -58.75482 | 6721 ft | 252 kts | 1° |
| 2026-05-06 20:36 | -34.32099 | -58.75822 | 6714 ft | 247 kts | 335° |
| 2026-05-06 20:36 | -34.30782 | -58.77125 | 6712 ft | 247 kts | 313° |
| 2026-05-06 20:36 | -34.29729 | -58.78775 | 6715 ft | 249 kts | 309° |
| 2026-05-06 20:37 | -34.28845 | -58.80562 | 6714 ft | 251 kts | 293° |
| 2026-05-06 20:37 | -34.28736 | -58.82703 | 6713 ft | 266 kts | 265° |
| 2026-05-06 20:37 | -34.29528 | -58.84767 | 6711 ft | 281 kts | 238° |
| 2026-05-06 20:37 | -34.31076 | -58.86271 | 6713 ft | 295 kts | 212° |
| 2026-05-06 20:38 | -34.33088 | -58.86861 | 6711 ft | 304 kts | 185° |
| 2026-05-06 20:38 | -34.35172 | -58.86377 | 6714 ft | 309 kts | 158° |
| 2026-05-06 20:38 | -34.36920 | -58.84904 | 6712 ft | 308 kts | 131° |
| 2026-05-06 20:38 | -34.37993 | -58.82735 | 6712 ft | 290 kts | 104° |
| 2026-05-06 20:39 | -34.38185 | -58.80469 | 6712 ft | 255 kts | 75° |
| 2026-05-06 20:39 | -34.37714 | -58.78546 | 6713 ft | 231 kts | 60° |
| 2026-05-06 20:39 | -34.36893 | -58.76987 | 6714 ft | 207 kts | 43° |
| 2026-05-06 20:39 | -34.36330 | -58.75409 | 6712 ft | 216 kts | 77° |
| 2026-05-06 20:40 | -34.36697 | -58.73608 | 6713 ft | 224 kts | 115° |
| 2026-05-06 20:40 | -34.37628 | -58.72156 | 6712 ft | 221 kts | 136° |
| 2026-05-06 20:40 | -34.38919 | -58.71208 | 6711 ft | 212 kts | 154° |
| 2026-05-06 20:40 | -34.40183 | -58.70394 | 6711 ft | 200 kts | 146° |
| 2026-05-06 20:41 | -34.41093 | -58.69217 | 6714 ft | 186 kts | 120° |
| 2026-05-06 20:41 | -34.41860 | -58.67961 | 6712 ft | 188 kts | 123° |
| 2026-05-06 20:41 | -34.42684 | -58.66648 | 6466 ft | 206 kts | 122° |
| 2026-05-06 20:41 | -34.43553 | -58.65217 | 5918 ft | 208 kts | 122° |
| 2026-05-06 20:42 | -34.44388 | -58.63848 | 5364 ft | 197 kts | 122° |
| 2026-05-06 20:42 | -34.45188 | -58.62536 | 4771 ft | 191 kts | 122° |
| 2026-05-06 20:42 | -34.45968 | -58.61271 | 4171 ft | 185 kts | 122° |
| 2026-05-06 20:42 | -34.46537 | -58.59954 | 3563 ft | 172 kts | 102° |
| 2026-05-06 20:43 | -34.46907 | -58.58603 | 3101 ft | 164 kts | 101° |
| 2026-05-06 20:43 | -34.47235 | -58.57320 | 2684 ft | 154 kts | 100° |
| 2026-05-06 20:43 | -34.47527 | -58.56130 | 2504 ft | 140 kts | 101° |
| 2026-05-06 20:43 | -34.47826 | -58.55039 | 2330 ft | 141 kts | 107° |
| 2026-05-06 20:44 | -34.48380 | -58.53978 | 1989 ft | 157 kts | 125° |
| 2026-05-06 20:44 | -34.49124 | -58.52898 | 1717 ft | 176 kts | 126° |
| 2026-05-06 20:44 | -34.49889 | -58.51718 | 1591 ft | 178 kts | 125° |
| 2026-05-06 20:44 | -34.50661 | -58.50541 | 1376 ft | 179 kts | 126° |
| 2026-05-06 20:45 | -34.51433 | -58.49371 | 1163 ft | 176 kts | 128° |
| 2026-05-06 20:45 | -34.52167 | -58.48209 | 949 ft | 167 kts | 125° |
| 2026-05-06 20:45 | -34.52794 | -58.47149 | 668 ft | 147 kts | 124° |
| 2026-05-06 20:45 | -34.53362 | -58.46140 | 569 ft | 145 kts | 124° |
| 2026-05-06 20:46 | -34.53918 | -58.45172 | 394 ft | 130 kts | 124° |
| 2026-05-06 20:46 | -34.54395 | -58.44315 | 280 ft | 115 kts | 123° |
| 2026-05-06 20:46 | -34.54818 | -58.43560 | 179 ft | 103 kts | 124° |
| 2026-05-06 20:46 | -34.55198 | -58.42878 | 76 ft | 96 kts | 124° |
| 2026-05-06 20:47 | -34.55552 | -58.42249 | 27 ft | 83 kts | 124° |
| 2026-05-06 20:47 | -34.55844 | -58.41726 | 20 ft | 58 kts | 123° |
| 2026-05-06 20:47 | -34.55985 | -58.41477 | 20 ft | 26 kts | 123° |
| 2026-05-06 20:47 | -34.56064 | -58.41399 | 21 ft | 7 kts | 221° |
| 2026-05-06 20:48 | -34.56096 | -58.41425 | 21 ft | 5 kts | 213° |
| 2026-05-06 20:48 | -34.56126 | -58.41450 | 21 ft | 5 kts | 214° |
| 2026-05-06 20:48 | -34.56158 | -58.41475 | 21 ft | 6 kts | 213° |
| 2026-05-06 20:48 | -34.56192 | -58.41479 | 21 ft | 8 kts | 160° |
| 2026-05-06 20:49 | -34.56225 | -58.41424 | 21 ft | 13 kts | 121° |
| 2026-05-06 20:49 | -34.56294 | -58.41289 | 21 ft | 24 kts | 124° |
| 2026-05-06 20:49 | -34.56334 | -58.41221 | 21 ft | 0 kts | 127° |
| 2026-05-06 20:52 | -34.56335 | -58.41219 | 21 ft | 1 kts | 129° |
| 2026-05-06 20:52 | -34.56376 | -58.41152 | 21 ft | 13 kts | 123° |
| 2026-05-06 20:52 | -34.56431 | -58.41052 | 21 ft | 16 kts | 124° |
| 2026-05-06 20:52 | -34.56496 | -58.40935 | 21 ft | 18 kts | 123° |
| 2026-05-06 20:53 | -34.56525 | -58.40872 | 24 ft | 1 kts | 54° |
| 2026-05-06 20:53 | -34.56513 | -58.40892 | 21 ft | 12 kts | 274° |
| 2026-05-06 20:53 | -34.56490 | -58.40918 | 21 ft | 4 kts | 31° |
| 2026-05-06 20:53 | -34.56473 | -58.40903 | 21 ft | 0 kts | 34° |